Meteo Giornale » Osservazioni meteo Azerbaijan » Gabala International Airport
ore: 23:00 - Osservazioni Meteo Gabala International Airport
Lat. 40° 49' N Lon. 47° 44' E Alt. 338 metri s.l.m.
22 °C
Molto Nuvoloso
Temp. 24 Ore
18 °C
28 °C
Nord
5.5 Km/h
Dew point 17 °C
Umidità 73 %
Visibilità 10 Km
Il sole sorge alle ore 06:15
Il sole tramonta alle ore 19:22
| Data e Ora | Cielo e Fenomeni | T °C | DP °C | Um. % | Pres. hPa | Vis. km | Vento km/h | |
|---|---|---|---|---|---|---|---|---|
| Oggi h: 23:00 | Molto Nuvoloso | 22 | 17 | 73 | 1018 | 10 | N 5.5 | |
| Oggi h: 22:00 | Molto Nuvoloso | 23 | 17 | 68 | 1018 | 10 | N 0 | |
| Oggi h: 21:00 | Molto Nuvoloso | 24 | 15 | 57 | 1018 | 10 | N 0 | |
| Oggi h: 20:00 | Molto Nuvoloso | 24 | 15 | 57 | 1017 | 10 | N 0 | |
| Oggi h: 19:00 | Molto Nuvoloso | 25 | 14 | 50 | 1016 | 10 | SO 13 | |
| Oggi h: 18:00 | Molto Nuvoloso | 26 | 14 | 47 | 1016 | 10 | SO 16.7 | |
| Oggi h: 17:00 | Nuvoloso | 27 | 13 | 42 | 1016 | 10 | SO 18.5 | |
| Oggi h: 16:00 | Nuvoloso | 28 | 14 | 42 | 1016 | 10 | S/SO 11.1 | |
| Oggi h: 15:00 | Nuvoloso | 28 | 15 | 45 | 1016 | 10 | S/SO 9.3 | |
| Oggi h: 14:00 | Molto Nuvoloso | 27 | 10 | 34 | 1017 | 10 | S 11.1 | |
| Oggi h: 13:00 | Molto Nuvoloso | 27 | 13 | 42 | 1017 | 10 | O/SO 7.4 | |
| Oggi h: 12:30 | Molto Nuvoloso | 26 | 14 | 47 | 1017 | 10 | N 3.7 | |
| Oggi h: 12:00 | Molto Nuvoloso | 25 | 15 | 53 | 1017 | 10 | N 5.5 | |
| Oggi h: 11:30 | Molto Nuvoloso | 25 | 16 | 57 | 1018 | 10 | N 3.7 | |
| Oggi h: 11:00 | Molto Nuvoloso | 23 | 18 | 73 | 1018 | 10 | N 3.7 | |
| Oggi h: 10:30 | Molto Nuvoloso | 22 | 17 | 73 | 1018 | 10 | N 3.7 | |
| Oggi h: 10:00 | Molto Nuvoloso | 22 | 18 | 78 | 1018 | 10 | N 3.7 | |
| Oggi h: 09:00 | Molto Nuvoloso | 20 | 18 | 88 | 1018 | 10 | O/NO 7.4 | |
| Oggi h: 08:30 | Molto Nuvoloso | 19 | 17 | 88 | 1018 | 10 | O 9.3 | |
| Oggi h: 08:00 | Molto Nuvoloso | 19 | 17 | 88 | 1018 | 10 | O 7.4 | |
| Oggi h: 07:00 | Coperto | 18 | 17 | 93 | 1018 | 10 | N 5.5 | |
| Oggi h: 06:00 | Coperto | 18 | 17 | 93 | 1017 | 10 | N 5.5 | |
| Oggi h: 05:00 | Coperto | 18 | 17 | 93 | 1017 | 10 | N 0 | |
| Oggi h: 04:00 | Coperto | 18 | 17 | 93 | 1017 | 10 | N 0 | |
| Oggi h: 03:00 | Coperto | 18 | 17 | 93 | 1017 | 10 | N 3.7 | |
| Oggi h: 02:00 | Coperto | 18 | 17 | 93 | 1017 | 10 | N 0 | |
| Oggi h: 01:00 | Coperto | 18 | 17 | 93 | 1018 | 10 | N 3.7 | |
| Oggi h: 00:00 | Coperto | 18 | 17 | 93 | 1017 | 10 | N 5.5 | |



